Time,TemperatureF,DewpointF,PressureIn,WindDirection,WindDirectionDegrees,WindSpeedMPH,WindSpeedGustMPH,Humidity,HourlyPrecipIn,Conditions,Clouds,dailyrainin,SoftwareType,DateUTC
2013-01-22 00:09:00,13.8,6.2,30.23,SE,135,3.7,-999.0,71,-99.99,,,0.00,Acu-Link.com,2013-01-22 06:09:00,
2013-01-22 00:25:00,13.8,5.9,30.21,SE,135,2.2,-999.0,70,-99.99,,,0.00,Acu-Link.com,2013-01-22 06:25:00,
2013-01-22 00:40:00,13.8,5.9,30.21,ESE,112,2.2,-999.0,70,-99.99,,,0.00,Acu-Link.com,2013-01-22 06:40:00,
2013-01-22 00:55:00,13.8,5.5,30.22,SSE,157,2.2,-999.0,69,-99.99,,,0.00,Acu-Link.com,2013-01-22 06:55:00,
2013-01-22 01:11:00,13.8,5.2,30.21,South,180,3.2,-999.0,68,-99.99,,,0.00,Acu-Link.com,2013-01-22 07:11:00,
2013-01-22 01:26:00,14.0,5.7,30.21,South,180,1.7,-999.0,69,-99.99,,,0.00,Acu-Link.com,2013-01-22 07:26:00,
2013-01-22 01:41:00,14.0,4.8,30.20,East,90,3.2,-999.0,66,-99.99,,,0.00,Acu-Link.com,2013-01-22 07:41:00,
2013-01-22 01:57:00,14.0,5.1,30.20,SSE,157,1.1,-999.0,67,-99.99,,,0.00,Acu-Link.com,2013-01-22 07:57:00,
2013-01-22 02:12:00,14.0,5.4,30.21,South,180,2.2,-999.0,68,-99.99,,,0.00,Acu-Link.com,2013-01-22 08:12:00,
2013-01-22 02:27:00,14.0,6.0,30.20,SSE,157,1.1,-999.0,70,-99.99,,,0.00,Acu-Link.com,2013-01-22 08:27:00,
2013-01-22 02:42:00,14.0,5.4,30.20,NNE,22,2.7,-999.0,68,-99.99,,,0.00,Acu-Link.com,2013-01-22 08:42:00,
2013-01-22 02:58:00,13.6,5.4,30.19,South,180,2.7,-999.0,69,-99.99,,,0.00,Acu-Link.com,2013-01-22 08:58:00,
2013-01-22 03:15:00,13.6,5.4,30.20,SSE,157,2.2,-999.0,69,-99.99,,,0.00,Acu-Link.com,2013-01-22 09:15:00,
2013-01-22 03:30:00,13.8,5.2,30.18,SE,135,2.2,-999.0,68,-99.99,,,0.00,Acu-Link.com,2013-01-22 09:30:00,
2013-01-22 03:45:00,13.8,5.9,30.18,South,180,1.7,-999.0,70,-99.99,,,0.00,Acu-Link.com,2013-01-22 09:45:00,
2013-01-22 04:00:00,13.6,5.7,30.17,South,180,2.7,-999.0,70,-99.99,,,0.00,Acu-Link.com,2013-01-22 10:00:00,
2013-01-22 04:15:00,13.6,5.7,30.17,ESE,112,3.7,-999.0,70,-99.99,,,0.00,Acu-Link.com,2013-01-22 10:15:00,
2013-01-22 04:30:00,13.6,6.3,30.17,South,180,4.2,-999.0,72,-99.99,,,0.00,Acu-Link.com,2013-01-22 10:30:00,
2013-01-22 04:46:00,13.6,6.0,30.16,SSW,202,2.7,-999.0,71,-99.99,,,0.00,Acu-Link.com,2013-01-22 10:46:00,
2013-01-22 05:01:00,13.5,5.9,30.15,SSE,157,6.3,-999.0,71,-99.99,,,0.00,Acu-Link.com,2013-01-22 11:01:00,
2013-01-22 05:16:00,13.5,5.9,30.16,South,180,3.7,-999.0,71,-99.99,,,0.00,Acu-Link.com,2013-01-22 11:16:00,
2013-01-22 05:32:00,13.6,6.0,30.15,SSE,157,3.2,-999.0,71,-99.99,,,0.00,Acu-Link.com,2013-01-22 11:32:00,
2013-01-22 05:47:00,13.5,5.9,30.14,SSW,202,2.7,-999.0,71,-99.99,,,0.00,Acu-Link.com,2013-01-22 11:47:00,
2013-01-22 06:02:00,13.5,5.6,30.17,SSE,157,4.2,-999.0,70,-99.99,,,0.00,Acu-Link.com,2013-01-22 12:02:00,
2013-01-22 06:18:00,13.6,5.7,30.17,SE,135,3.2,-999.0,70,-99.99,,,0.00,Acu-Link.com,2013-01-22 12:18:00,
2013-01-22 06:33:00,13.5,4.9,30.18,East,90,0.0,-999.0,68,-99.99,,,0.00,Acu-Link.com,2013-01-22 12:33:00,
2013-01-22 06:48:00,13.5,4.6,30.18,SE,135,2.2,-999.0,67,-99.99,,,0.00,Acu-Link.com,2013-01-22 12:48:00,
2013-01-22 07:03:00,12.7,4.8,30.16,SE,135,1.1,-999.0,70,-99.99,,,0.00,Acu-Link.com,2013-01-22 13:03:00,
2013-01-22 07:19:00,12.0,5.0,30.18,East,90,2.2,-999.0,73,-99.99,,,0.00,Acu-Link.com,2013-01-22 13:19:00,
2013-01-22 07:34:00,12.0,5.0,30.17,SSE,157,2.7,-999.0,73,-99.99,,,0.00,Acu-Link.com,2013-01-22 13:34:00,
2013-01-22 07:49:00,12.2,5.2,30.16,NNE,22,2.2,-999.0,73,-99.99,,,0.00,Acu-Link.com,2013-01-22 13:49:00,
2013-01-22 08:05:00,12.0,5.0,30.16,ESE,112,2.7,-999.0,73,-99.99,,,0.00,Acu-Link.com,2013-01-22 14:05:00,
2013-01-22 08:20:00,12.2,5.2,30.16,SSE,157,4.2,-999.0,73,-99.99,,,0.00,Acu-Link.com,2013-01-22 14:20:00,
2013-01-22 08:35:00,12.9,5.6,30.17,SE,135,3.2,-999.0,72,-99.99,,,0.00,Acu-Link.com,2013-01-22 14:35:00,
2013-01-22 08:51:00,13.5,6.2,30.17,SE,135,3.2,-999.0,72,-99.99,,,0.00,Acu-Link.com,2013-01-22 14:51:00,
2013-01-22 09:21:00,14.7,7.0,30.19,ESE,112,4.7,-999.0,71,-99.99,,,0.00,Acu-Link.com,2013-01-22 15:21:00,
2013-01-22 09:36:00,15.6,7.6,30.20,SE,135,4.2,-999.0,70,-99.99,,,0.00,Acu-Link.com,2013-01-22 15:36:00,
2013-01-22 09:52:00,15.8,8.1,30.20,SSE,157,5.8,-999.0,71,-99.99,,,0.00,Acu-Link.com,2013-01-22 15:52:00,
2013-01-22 10:07:00,16.0,8.0,30.20,SE,135,3.7,-999.0,70,-99.99,,,0.00,Acu-Link.com,2013-01-22 16:07:00,
2013-01-22 10:23:00,16.7,8.0,30.20,South,180,5.3,-999.0,68,-99.99,,,0.00,Acu-Link.com,2013-01-22 16:23:00,
2013-01-22 10:38:00,17.2,8.5,30.21,South,180,6.8,-999.0,68,-99.99,,,0.00,Acu-Link.com,2013-01-22 16:38:00,
2013-01-22 10:53:00,18.0,8.3,30.21,SSE,157,4.2,-999.0,65,-99.99,,,0.00,Acu-Link.com,2013-01-22 16:53:00,
2013-01-22 11:08:00,18.5,8.4,30.20,SW,225,5.3,-999.0,64,-99.99,,,0.00,Acu-Link.com,2013-01-22 17:08:00,
2013-01-22 11:24:00,19.4,8.9,30.21,ENE,67,5.8,-999.0,63,-99.99,,,0.00,Acu-Link.com,2013-01-22 17:24:00,
2013-01-22 11:39:00,20.1,9.6,30.20,South,180,4.7,-999.0,63,-99.99,,,0.00,Acu-Link.com,2013-01-22 17:39:00,
2013-01-22 11:54:00,20.1,9.6,30.18,SSE,157,3.2,-999.0,63,-99.99,,,0.00,Acu-Link.com,2013-01-22 17:54:00,
2013-01-22 12:10:00,21.2,9.9,30.17,South,180,7.8,-999.0,61,-99.99,,,0.00,Acu-Link.com,2013-01-22 18:10:00,
2013-01-22 12:25:00,22.1,10.7,30.16,SW,225,2.7,-999.0,61,-99.99,,,0.00,Acu-Link.com,2013-01-22 18:25:00,
2013-01-22 12:40:00,21.9,10.5,30.15,ESE,112,3.7,-999.0,61,-99.99,,,0.00,Acu-Link.com,2013-01-22 18:40:00,
2013-01-22 12:55:00,22.6,10.8,30.14,ESE,112,3.2,-999.0,60,-99.99,,,0.00,Acu-Link.com,2013-01-22 18:55:00,
2013-01-22 13:11:00,22.8,11.0,30.13,ESE,112,2.7,-999.0,60,-99.99,,,0.00,Acu-Link.com,2013-01-22 19:11:00,
2013-01-22 13:41:00,23.7,11.9,30.12,ESE,112,7.3,-999.0,60,-99.99,,,0.00,Acu-Link.com,2013-01-22 19:41:00,
2013-01-22 13:57:00,24.3,12.1,30.12,SSE,157,4.7,-999.0,59,-99.99,,,0.00,Acu-Link.com,2013-01-22 19:57:00,
2013-01-22 14:12:00,24.1,11.5,30.11,SW,225,4.7,-999.0,58,-99.99,,,0.00,Acu-Link.com,2013-01-22 20:12:00,
2013-01-22 14:27:00,24.3,12.1,30.12,SSW,202,4.7,-999.0,59,-99.99,,,0.00,Acu-Link.com,2013-01-22 20:27:00,
2013-01-22 14:43:00,24.8,12.9,30.11,South,180,3.2,-999.0,60,-99.99,,,0.00,Acu-Link.com,2013-01-22 20:43:00,
2013-01-22 14:58:00,25.3,12.6,30.10,SSW,202,5.8,-999.0,58,-99.99,,,0.00,Acu-Link.com,2013-01-22 20:58:00,
2013-01-22 15:13:00,25.3,12.6,30.10,SSW,202,8.3,-999.0,58,-99.99,,,0.00,Acu-Link.com,2013-01-22 21:13:00,
2013-01-22 15:28:00,26.1,13.4,30.09,South,180,4.7,-999.0,58,-99.99,,,0.00,Acu-Link.com,2013-01-22 21:28:00,
2013-01-22 15:44:00,25.7,13.4,30.09,SW,225,5.8,-999.0,59,-99.99,,,0.00,Acu-Link.com,2013-01-22 21:44:00,
2013-01-22 15:59:00,25.9,13.2,30.09,SSW,202,3.2,-999.0,58,-99.99,,,0.00,Acu-Link.com,2013-01-22 21:59:00,
2013-01-22 16:14:00,26.6,13.8,30.09,SE,135,4.2,-999.0,58,-99.99,,,0.00,Acu-Link.com,2013-01-22 22:14:00,
2013-01-22 16:30:00,25.5,13.2,30.09,ESE,112,2.2,-999.0,59,-99.99,,,0.00,Acu-Link.com,2013-01-22 22:30:00,
2013-01-22 16:45:00,25.7,13.8,30.09,SW,225,2.7,-999.0,60,-99.99,,,0.00,Acu-Link.com,2013-01-22 22:45:00,
2013-01-22 17:00:00,25.0,13.5,30.09,WSW,247,3.7,-999.0,61,-99.99,,,0.00,Acu-Link.com,2013-01-22 23:00:00,
2013-01-22 17:16:00,24.4,13.6,30.10,SSW,202,3.2,-999.0,63,-99.99,,,0.00,Acu-Link.com,2013-01-22 23:16:00,
2013-01-22 17:46:00,23.2,13.9,30.10,South,180,2.7,-999.0,67,-99.99,,,0.00,Acu-Link.com,2013-01-22 23:46:00,
2013-01-22 18:01:00,22.6,14.0,30.11,WSW,247,1.7,-999.0,69,-99.99,,,0.00,Acu-Link.com,2013-01-23 00:01:00,
2013-01-22 18:17:00,22.1,13.8,30.11,WSW,247,0.0,-999.0,70,-99.99,,,0.00,Acu-Link.com,2013-01-23 00:17:00,
2013-01-22 18:32:00,21.2,13.3,30.11,SW,225,0.0,-999.0,71,-99.99,,,0.00,Acu-Link.com,2013-01-23 00:32:00,
2013-01-22 18:47:00,20.5,13.6,30.11,SSW,202,0.0,-999.0,74,-99.99,,,0.00,Acu-Link.com,2013-01-23 00:47:00,
2013-01-22 19:03:00,19.4,13.1,30.10,WSW,247,0.0,-999.0,76,-99.99,,,0.00,Acu-Link.com,2013-01-23 01:03:00,
2013-01-22 19:18:00,19.9,13.3,30.09,SE,135,0.0,-999.0,75,-99.99,,,0.00,Acu-Link.com,2013-01-23 01:18:00,
2013-01-22 19:33:00,18.9,12.9,30.10,SSE,157,0.0,-999.0,77,-99.99,,,0.00,Acu-Link.com,2013-01-23 01:33:00,
2013-01-22 19:49:00,18.7,13.0,30.09,SSE,157,0.0,-999.0,78,-99.99,,,0.00,Acu-Link.com,2013-01-23 01:49:00,
2013-01-22 20:04:00,18.0,12.6,30.11,SW,225,0.0,-999.0,79,-99.99,,,0.00,Acu-Link.com,2013-01-23 02:04:00,
2013-01-22 20:19:00,18.7,13.3,30.10,South,180,1.7,-999.0,79,-99.99,,,0.00,Acu-Link.com,2013-01-23 02:19:00,
2013-01-22 20:34:00,20.3,14.0,30.10,South,180,3.2,-999.0,76,-99.99,,,0.00,Acu-Link.com,2013-01-23 02:34:00,
2013-01-22 20:50:00,20.1,13.8,30.11,SSW,202,1.7,-999.0,76,-99.99,,,0.00,Acu-Link.com,2013-01-23 02:50:00,
2013-01-22 21:05:00,20.3,14.0,30.10,South,180,2.2,-999.0,76,-99.99,,,0.00,Acu-Link.com,2013-01-23 03:05:00,
2013-01-22 21:20:00,20.3,14.0,30.09,SSW,202,2.2,-999.0,76,-99.99,,,0.00,Acu-Link.com,2013-01-23 03:20:00,
2013-01-22 21:36:00,20.5,14.2,30.09,SSE,157,4.7,-999.0,76,-99.99,,,0.00,Acu-Link.com,2013-01-23 03:36:00,
2013-01-22 21:51:00,20.5,14.2,30.09,West,270,2.2,-999.0,76,-99.99,,,0.00,Acu-Link.com,2013-01-23 03:51:00,
2013-01-22 22:06:00,20.3,14.3,30.09,SSE,157,3.2,-999.0,77,-99.99,,,0.00,Acu-Link.com,2013-01-23 04:06:00,
2013-01-22 22:22:00,20.1,14.4,30.10,SSW,202,3.2,-999.0,78,-99.99,,,0.00,Acu-Link.com,2013-01-23 04:22:00,
2013-01-22 22:37:00,20.1,14.4,30.10,South,180,2.2,-999.0,78,-99.99,,,0.00,Acu-Link.com,2013-01-23 04:37:00,
2013-01-22 22:53:00,19.9,14.5,30.10,WSW,247,3.7,-999.0,79,-99.99,,,0.00,Acu-Link.com,2013-01-23 04:53:00,
2013-01-22 23:08:00,19.9,14.5,30.10,SSW,202,2.2,-999.0,79,-99.99,,,0.00,Acu-Link.com,2013-01-23 05:08:00,
2013-01-22 23:23:00,19.8,14.6,30.10,WSW,247,1.7,-999.0,80,-99.99,,,0.00,Acu-Link.com,2013-01-23 05:23:00,
2013-01-22 23:38:00,19.9,14.5,30.10,SSW,202,2.2,-999.0,79,-99.99,,,0.00,Acu-Link.com,2013-01-23 05:38:00,
2013-01-22 23:54:00,19.8,14.4,30.10,South,180,2.2,-999.0,79,-99.99,,,0.00,Acu-Link.com,2013-01-23 05:54:00,